Wetterdaten: Woche 13.10.14 - 19.10.14 (KW42)
Datum Zeit Temperatur Luftfeuchte Luftdruck Niederschlag Windrichtung Sonnenschein Solar Wind
13.10.2014 00:00 12,5 C 95 % 1007,2 hPa 0,0 l/m N-NO 0,00 h 0 W/m 2,7 km/h (1 Bft)
13.10.2014 01:00 12,3 C 96 % 1007,1 hPa 0,0 l/m N-NO 0,00 h 0 W/m 2,4 km/h (1 Bft)
13.10.2014 02:00 11,8 C 97 % 1006,7 hPa 0,0 l/m N 0,00 h 0 W/m 4,3 km/h (1 Bft)
13.10.2014 03:00 11,5 C 97 % 1006,6 hPa 0,0 l/m N 0,00 h 0 W/m 6,8 km/h (2 Bft)
13.10.2014 04:00 11,8 C 98 % 1006,9 hPa 0,0 l/m N-NW 0,00 h 0 W/m 8,6 km/h (2 Bft)
13.10.2014 05:00 11,6 C 98 % 1007,1 hPa 0,0 l/m W 0,00 h 0 W/m 4,7 km/h (1 Bft)
13.10.2014 06:00 11,2 C 98 % 1007,0 hPa 0,0 l/m W-SW 0,00 h 0 W/m 3,5 km/h (1 Bft)
13.10.2014 07:00 10,8 C 98 % 1007,1 hPa 0,0 l/m N 0,00 h 7 W/m 1,9 km/h (1 Bft)
13.10.2014 08:00 10,7 C 99 % 1007,9 hPa 0,0 l/m W-SW 0,00 h 17 W/m 2,9 km/h (1 Bft)
13.10.2014 09:00 11,5 C 99 % 1008,7 hPa 0,0 l/m W-SW 0,00 h 68 W/m 2,8 km/h (1 Bft)
13.10.2014 10:00 12,8 C 99 % 1009,4 hPa 0,0 l/m W-SW 0,00 h 114 W/m 3,6 km/h (1 Bft)
13.10.2014 11:00 14,2 C 98 % 1009,4 hPa 0,0 l/m S-SW 0,00 h 103 W/m 10,3 km/h (2 Bft)
13.10.2014 12:00 14,5 C 95 % 1009,3 hPa 0,0 l/m SW 0,00 h 150 W/m 13,8 km/h (3 Bft)
13.10.2014 13:00 15,4 C 93 % 1009,1 hPa 0,0 l/m S-SW 0,00 h 108 W/m 6,7 km/h (2 Bft)
13.10.2014 14:00 15,5 C 84 % 1008,9 hPa 0,2 l/m W-SW 0,00 h 76 W/m 9,4 km/h (2 Bft)
13.10.2014 15:00 14,7 C 91 % 1009,0 hPa 0,0 l/m SW 0,00 h 39 W/m 13,8 km/h (3 Bft)
13.10.2014 16:00 13,9 C 95 % 1008,8 hPa 0,4 l/m SW 0,00 h 30 W/m 18,1 km/h (3 Bft)
13.10.2014 17:00 13,3 C 96 % 1008,0 hPa 0,2 l/m S-SW 0,00 h 21 W/m 8,9 km/h (2 Bft)
13.10.2014 18:00 13,1 C 96 % 1007,9 hPa 0,0 l/m S-SW 0,00 h 6 W/m 8,7 km/h (2 Bft)
13.10.2014 19:00 12,8 C 97 % 1007,7 hPa 1,0 l/m S-SW 0,00 h 0 W/m 3,6 km/h (1 Bft)
13.10.2014 20:00 12,5 C 97 % 1007,8 hPa 0,0 l/m S-SW 0,00 h 0 W/m 2,5 km/h (1 Bft)
13.10.2014 21:00 12,2 C 97 % 1007,7 hPa 0,0 l/m S-SW 0,00 h 0 W/m 4,1 km/h (1 Bft)
13.10.2014 22:00 12,1 C 97 % 1007,4 hPa 0,2 l/m S-SW 0,00 h 0 W/m 5,9 km/h (2 Bft)
13.10.2014 23:00 12,1 C 97 % 1008,5 hPa 1,4 l/m SW 0,00 h 0 W/m 5,0 km/h (1 Bft)
14.10.2014 00:00 12,0 C 98 % 1009,2 hPa 2,6 l/m SW 0,00 h 0 W/m 7,6 km/h (2 Bft)
14.10.2014 01:00 12,1 C 98 % 1009,4 hPa 0,4 l/m SW 0,00 h 0 W/m 7,1 km/h (2 Bft)
14.10.2014 02:00 12,0 C 98 % 1009,7 hPa 0,8 l/m SW 0,00 h 0 W/m 11,3 km/h (2 Bft)
14.10.2014 03:00 11,8 C 98 % 1009,7 hPa 0,0 l/m SW 0,00 h 0 W/m 13,8 km/h (3 Bft)
14.10.2014 04:00 11,3 C 98 % 1009,6 hPa 0,0 l/m SW 0,00 h 0 W/m 9,0 km/h (2 Bft)
14.10.2014 05:00 10,3 C 98 % 1009,6 hPa 0,0 l/m N 0,00 h 0 W/m 2,0 km/h (1 Bft)
14.10.2014 06:00 9,4 C 98 % 1009,3 hPa 0,0 l/m N 0,00 h 0 W/m 0,0 km/h (0 Bft)
14.10.2014 07:00 8,7 C 97 % 1009,2 hPa 0,0 l/m N 0,00 h 7 W/m 0,4 km/h (0 Bft)
14.10.2014 08:00 8,3 C 98 % 1009,7 hPa 0,0 l/m N 0,17 h 58 W/m 0,1 km/h (0 Bft)
14.10.2014 09:00 9,2 C 99 % 1009,9 hPa 0,0 l/m N 1,00 h 198 W/m 1,5 km/h (1 Bft)
14.10.2014 10:00 11,0 C 99 % 1010,1 hPa 0,0 l/m SW 1,00 h 350 W/m 4,8 km/h (1 Bft)
14.10.2014 11:00 12,7 C 99 % 1009,9 hPa 0,0 l/m SW 1,00 h 470 W/m 7,4 km/h (2 Bft)
14.10.2014 12:00 14,9 C 91 % 1009,5 hPa 0,0 l/m S-SW 1,00 h 544 W/m 8,7 km/h (2 Bft)
14.10.2014 13:00 17,2 C 74 % 1009,0 hPa 0,0 l/m S-SW 1,00 h 558 W/m 8,3 km/h (2 Bft)
14.10.2014 14:00 18,1 C 69 % 1008,4 hPa 0,0 l/m W 1,00 h 484 W/m 8,6 km/h (2 Bft)
14.10.2014 15:00 18,5 C 67 % 1008,3 hPa 0,0 l/m SW 1,00 h 297 W/m 10,1 km/h (2 Bft)
14.10.2014 16:00 18,0 C 62 % 1007,8 hPa 0,0 l/m W 0,75 h 215 W/m 6,1 km/h (2 Bft)
14.10.2014 17:00 17,2 C 69 % 1007,8 hPa 0,0 l/m W 0,67 h 121 W/m 3,2 km/h (1 Bft)
14.10.2014 18:00 15,8 C 78 % 1007,8 hPa 0,0 l/m N 0,17 h 14 W/m 0,8 km/h (0 Bft)
14.10.2014 19:00 13,8 C 81 % 1008,0 hPa 0,0 l/m N 0,00 h 0 W/m 0,0 km/h (0 Bft)
14.10.2014 20:00 11,9 C 85 % 1007,9 hPa 0,0 l/m N 0,00 h 0 W/m 0,0 km/h (0 Bft)
14.10.2014 21:00 10,7 C 87 % 1008,1 hPa 0,0 l/m N 0,00 h 0 W/m 0,0 km/h (0 Bft)
14.10.2014 22:00 9,8 C 89 % 1008,1 hPa 0,0 l/m N 0,00 h 0 W/m 0,1 km/h (0 Bft)
14.10.2014 23:00 9,5 C 92 % 1008,0 hPa 0,0 l/m N 0,00 h 0 W/m 0,4 km/h (0 Bft)
15.10.2014 00:00 9,6 C 94 % 1007,9 hPa 0,0 l/m N 0,00 h 0 W/m 0,0 km/h (0 Bft)
15.10.2014 01:00 9,8 C 95 % 1008,1 hPa 0,0 l/m W 0,00 h 0 W/m 1,5 km/h (1 Bft)
15.10.2014 02:00 9,9 C 96 % 1008,6 hPa 0,0 l/m N 0,00 h 0 W/m 0,7 km/h (0 Bft)
15.10.2014 03:00 10,1 C 96 % 1008,4 hPa 0,0 l/m W 0,00 h 0 W/m 1,9 km/h (1 Bft)
15.10.2014 04:00 10,1 C 97 % 1008,1 hPa 0,2 l/m W 0,00 h 0 W/m 3,3 km/h (1 Bft)
15.10.2014 05:00 10,9 C 97 % 1008,5 hPa 0,0 l/m W-SW 0,00 h 0 W/m 3,7 km/h (1 Bft)
15.10.2014 06:00 11,1 C 98 % 1008,3 hPa 0,2 l/m W-SW 0,00 h 0 W/m 2,1 km/h (1 Bft)
15.10.2014 07:00 11,2 C 98 % 1008,3 hPa 0,0 l/m W-SW 0,00 h 6 W/m 2,4 km/h (1 Bft)
15.10.2014 08:00 11,5 C 98 % 1008,4 hPa 0,0 l/m W-SW 0,00 h 20 W/m 4,5 km/h (1 Bft)
15.10.2014 09:00 11,8 C 98 % 1008,1 hPa 0,0 l/m N 0,00 h 46 W/m 2,1 km/h (1 Bft)
15.10.2014 10:00 12,2 C 98 % 1008,0 hPa 0,2 l/m W-SW 0,00 h 64 W/m 3,7 km/h (1 Bft)
15.10.2014 11:00 12,7 C 98 % 1008,1 hPa 0,0 l/m W-SW 0,00 h 87 W/m 7,8 km/h (2 Bft)
15.10.2014 12:00 13,8 C 96 % 1007,8 hPa 0,0 l/m S 0,33 h 327 W/m 10,1 km/h (2 Bft)
15.10.2014 13:00 16,1 C 85 % 1006,9 hPa 0,0 l/m S-SW 0,92 h 510 W/m 12,9 km/h (3 Bft)
15.10.2014 14:00 16,7 C 78 % 1006,8 hPa 0,0 l/m SW 1,00 h 461 W/m 15,0 km/h (3 Bft)
15.10.2014 15:00 17,3 C 73 % 1006,6 hPa 0,0 l/m SW 0,67 h 291 W/m 10,3 km/h (2 Bft)
15.10.2014 16:00 16,9 C 76 % 1006,4 hPa 0,0 l/m SW 0,17 h 128 W/m 9,7 km/h (2 Bft)
15.10.2014 17:00 16,1 C 81 % 1006,4 hPa 0,0 l/m SW 0,00 h 59 W/m 4,2 km/h (1 Bft)
15.10.2014 18:00 15,3 C 85 % 1006,3 hPa 0,0 l/m N 0,00 h 11 W/m 0,0 km/h (0 Bft)
15.10.2014 19:00 14,5 C 87 % 1006,5 hPa 0,0 l/m N 0,00 h 0 W/m 0,0 km/h (0 Bft)
15.10.2014 20:00 13,7 C 89 % 1007,0 hPa 0,0 l/m N 0,00 h 0 W/m 0,0 km/h (0 Bft)
15.10.2014 21:00 13,4 C 91 % 1007,4 hPa 0,2 l/m N 0,00 h 0 W/m 0,0 km/h (0 Bft)
15.10.2014 22:00 13,3 C 92 % 1007,6 hPa 0,8 l/m N 0,00 h 0 W/m 0,3 km/h (0 Bft)
15.10.2014 23:00 13,2 C 94 % 1007,7 hPa 0,6 l/m SW 0,00 h 0 W/m 4,4 km/h (1 Bft)
16.10.2014 00:00 13,1 C 96 % 1007,3 hPa 0,0 l/m SW 0,00 h 0 W/m 8,0 km/h (2 Bft)
16.10.2014 01:00 12,9 C 97 % 1007,5 hPa 0,0 l/m SW 0,00 h 0 W/m 10,6 km/h (2 Bft)
16.10.2014 02:00 12,8 C 97 % 1007,4 hPa 0,0 l/m SW 0,00 h 0 W/m 7,1 km/h (2 Bft)
16.10.2014 03:00 12,6 C 98 % 1007,5 hPa 0,0 l/m SW 0,00 h 0 W/m 10,3 km/h (2 Bft)
16.10.2014 04:00 12,6 C 98 % 1007,6 hPa 0,2 l/m SW 0,00 h 0 W/m 12,2 km/h (2 Bft)
16.10.2014 05:00 12,6 C 98 % 1007,7 hPa 0,4 l/m SW 0,00 h 0 W/m 6,3 km/h (2 Bft)
16.10.2014 06:00 12,5 C 98 % 1007,8 hPa 0,2 l/m SW 0,00 h 0 W/m 3,1 km/h (1 Bft)
16.10.2014 07:00 12,1 C 98 % 1008,1 hPa 0,0 l/m SW 0,00 h 7 W/m 7,2 km/h (2 Bft)
16.10.2014 08:00 12,0 C 98 % 1008,2 hPa 0,0 l/m SW 0,00 h 35 W/m 7,7 km/h (2 Bft)
16.10.2014 09:00 12,7 C 98 % 1008,4 hPa 0,0 l/m SW 0,00 h 63 W/m 13,0 km/h (3 Bft)
16.10.2014 10:00 14,0 C 95 % 1008,4 hPa 0,0 l/m SW 0,25 h 183 W/m 13,0 km/h (3 Bft)
16.10.2014 11:00 15,1 C 89 % 1008,4 hPa 0,0 l/m W-SW 0,08 h 207 W/m 17,6 km/h (3 Bft)
16.10.2014 12:00 15,8 C 84 % 1008,5 hPa 0,0 l/m W-SW 0,08 h 150 W/m 21,6 km/h (4 Bft)
16.10.2014 13:00 15,4 C 85 % 1008,5 hPa 0,2 l/m W-SW 0,00 h 104 W/m 14,8 km/h (3 Bft)
16.10.2014 14:00 15,0 C 88 % 1008,4 hPa 0,2 l/m W-SW 0,00 h 95 W/m 17,0 km/h (3 Bft)
16.10.2014 15:00 14,9 C 90 % 1008,8 hPa 0,2 l/m W-SW 0,00 h 81 W/m 17,3 km/h (3 Bft)
16.10.2014 16:00 14,9 C 89 % 1009,0 hPa 0,0 l/m SW 0,00 h 56 W/m 16,1 km/h (3 Bft)
16.10.2014 17:00 14,7 C 89 % 1009,4 hPa 0,0 l/m W-SW 0,00 h 20 W/m 18,0 km/h (3 Bft)
16.10.2014 18:00 14,5 C 89 % 1009,5 hPa 0,0 l/m SW 0,00 h 7 W/m 14,1 km/h (3 Bft)
16.10.2014 19:00 13,9 C 91 % 1009,7 hPa 0,0 l/m SW 0,00 h 0 W/m 9,0 km/h (2 Bft)
16.10.2014 20:00 13,5 C 94 % 1010,0 hPa 0,0 l/m SW 0,00 h 0 W/m 12,1 km/h (2 Bft)
16.10.2014 21:00 13,4 C 94 % 1010,0 hPa 0,0 l/m SW 0,00 h 0 W/m 12,2 km/h (2 Bft)
16.10.2014 22:00 13,7 C 93 % 1009,9 hPa 0,0 l/m SW 0,00 h 0 W/m 8,5 km/h (2 Bft)
16.10.2014 23:00 13,6 C 93 % 1009,8 hPa 0,0 l/m SW 0,00 h 0 W/m 2,0 km/h (1 Bft)
17.10.2014 00:00 13,2 C 94 % 1009,0 hPa 0,0 l/m N 0,00 h 0 W/m 0,5 km/h (0 Bft)
17.10.2014 01:00 12,8 C 95 % 1009,0 hPa 0,6 l/m SW 0,00 h 0 W/m 3,5 km/h (1 Bft)
17.10.2014 02:00 12,8 C 96 % 1008,1 hPa 0,2 l/m SW 0,00 h 0 W/m 1,6 km/h (1 Bft)
17.10.2014 03:00 12,7 C 96 % 1007,1 hPa 0,4 l/m SW 0,00 h 0 W/m 1,1 km/h (0 Bft)
17.10.2014 04:00 12,6 C 97 % 1006,5 hPa 0,8 l/m N 0,00 h 0 W/m 0,4 km/h (0 Bft)
17.10.2014 05:00 12,6 C 97 % 1005,7 hPa 0,4 l/m N 0,00 h 0 W/m 0,7 km/h (0 Bft)
17.10.2014 06:00 12,5 C 98 % 1005,4 hPa 1,8 l/m SW 0,00 h 0 W/m 6,8 km/h (2 Bft)
17.10.2014 07:00 13,3 C 98 % 1005,9 hPa 0,2 l/m W-SW 0,00 h 0 W/m 30,7 km/h (5 Bft)
17.10.2014 08:00 13,3 C 97 % 1009,2 hPa 0,4 l/m W-NW 0,00 h 29 W/m 24,9 km/h (4 Bft)
17.10.2014 09:00 12,2 C 95 % 1012,3 hPa 0,2 l/m W-NW 0,42 h 131 W/m 17,3 km/h (3 Bft)
17.10.2014 10:00 12,6 C 93 % 1014,4 hPa 0,0 l/m W-NW 0,00 h 124 W/m 14,9 km/h (3 Bft)
17.10.2014 11:00 13,6 C 91 % 1015,5 hPa 0,0 l/m W-NW 0,25 h 245 W/m 12,0 km/h (2 Bft)
17.10.2014 12:00 14,7 C 84 % 1016,4 hPa 0,0 l/m W 0,33 h 278 W/m 14,5 km/h (3 Bft)
17.10.2014 13:00 15,6 C 81 % 1016,2 hPa 0,0 l/m W 0,58 h 400 W/m 12,1 km/h (2 Bft)
17.10.2014 14:00 16,3 C 77 % 1015,9 hPa 0,0 l/m W 0,08 h 210 W/m 11,8 km/h (2 Bft)
17.10.2014 15:00 16,4 C 74 % 1016,1 hPa 0,0 l/m W-SW 0,00 h 125 W/m 9,3 km/h (2 Bft)
17.10.2014 16:00 15,9 C 80 % 1016,5 hPa 0,0 l/m W-SW 0,00 h 59 W/m 4,4 km/h (1 Bft)
17.10.2014 17:00 15,7 C 83 % 1016,9 hPa 0,0 l/m N 0,00 h 49 W/m 0,8 km/h (0 Bft)
17.10.2014 18:00 15,6 C 85 % 1017,3 hPa 0,0 l/m W-SW 0,08 h 12 W/m 0,7 km/h (0 Bft)
17.10.2014 19:00 14,9 C 86 % 1017,9 hPa 0,0 l/m N 0,00 h 0 W/m 0,8 km/h (0 Bft)
17.10.2014 20:00 13,5 C 87 % 1018,3 hPa 0,0 l/m N 0,00 h 0 W/m 0,1 km/h (0 Bft)
17.10.2014 21:00 12,1 C 89 % 1018,3 hPa 0,0 l/m W-SW 0,00 h 0 W/m 1,5 km/h (1 Bft)
17.10.2014 22:00 11,1 C 91 % 1018,5 hPa 0,0 l/m N 0,00 h 0 W/m 1,1 km/h (0 Bft)
17.10.2014 23:00 10,3 C 92 % 1018,7 hPa 0,0 l/m N 0,00 h 0 W/m 0,3 km/h (0 Bft)
18.10.2014 00:00 9,7 C 93 % 1019,1 hPa 0,0 l/m W-SW 0,00 h 0 W/m 1,3 km/h (1 Bft)
18.10.2014 01:00 9,3 C 94 % 1019,1 hPa 0,0 l/m N 0,00 h 0 W/m 1,9 km/h (1 Bft)
18.10.2014 02:00 8,9 C 94 % 1019,4 hPa 0,0 l/m N 0,00 h 0 W/m 0,3 km/h (0 Bft)
18.10.2014 03:00 8,4 C 95 % 1019,5 hPa 0,0 l/m N 0,00 h 0 W/m 2,5 km/h (1 Bft)
18.10.2014 04:00 8,0 C 95 % 1019,8 hPa 0,0 l/m N 0,00 h 0 W/m 0,3 km/h (0 Bft)
18.10.2014 05:00 7,4 C 96 % 1020,2 hPa 0,0 l/m N 0,00 h 0 W/m 0,4 km/h (0 Bft)
18.10.2014 06:00 7,1 C 96 % 1020,6 hPa 0,0 l/m N 0,00 h 0 W/m 0,3 km/h (0 Bft)
18.10.2014 07:00 6,6 C 96 % 1020,8 hPa 0,0 l/m N 0,00 h 7 W/m 0,7 km/h (0 Bft)
18.10.2014 08:00 6,3 C 96 % 1021,4 hPa 0,0 l/m N 0,00 h 26 W/m 0,8 km/h (0 Bft)
18.10.2014 09:00 7,2 C 98 % 1022,0 hPa 0,0 l/m W-SW 0,58 h 155 W/m 2,1 km/h (1 Bft)
18.10.2014 10:00 8,8 C 99 % 1022,3 hPa 0,2 l/m W-SW 1,00 h 328 W/m 3,9 km/h (1 Bft)
18.10.2014 11:00 10,8 C 99 % 1022,1 hPa 0,0 l/m W-SW 1,00 h 443 W/m 4,1 km/h (1 Bft)
18.10.2014 12:00 14,0 C 93 % 1021,8 hPa 0,0 l/m W-SW 1,00 h 519 W/m 4,0 km/h (1 Bft)
18.10.2014 13:00 17,5 C 75 % 1021,1 hPa 0,0 l/m SW 1,00 h 537 W/m 4,3 km/h (1 Bft)
18.10.2014 14:00 18,9 C 70 % 1020,8 hPa 0,0 l/m O-SO 1,00 h 500 W/m 6,1 km/h (2 Bft)
18.10.2014 15:00 20,0 C 66 % 1020,5 hPa 0,0 l/m O-SO 1,00 h 414 W/m 5,1 km/h (1 Bft)
18.10.2014 16:00 20,1 C 69 % 1020,5 hPa 0,0 l/m O-NO 1,00 h 288 W/m 8,2 km/h (2 Bft)
18.10.2014 17:00 19,0 C 78 % 1020,3 hPa 0,0 l/m O-NO 0,92 h 110 W/m 6,2 km/h (2 Bft)
18.10.2014 18:00 17,8 C 81 % 1020,6 hPa 0,0 l/m N 0,00 h 9 W/m 1,7 km/h (1 Bft)
18.10.2014 19:00 15,8 C 85 % 1021,1 hPa 0,0 l/m N 0,00 h 0 W/m 2,1 km/h (1 Bft)
18.10.2014 20:00 14,4 C 88 % 1021,4 hPa 0,0 l/m N 0,00 h 0 W/m 1,5 km/h (1 Bft)
18.10.2014 21:00 13,3 C 90 % 1021,7 hPa 0,0 l/m N 0,00 h 0 W/m 1,6 km/h (1 Bft)
18.10.2014 22:00 12,5 C 91 % 1022,0 hPa 0,0 l/m N 0,00 h 0 W/m 0,4 km/h (0 Bft)
18.10.2014 23:00 11,6 C 92 % 1022,2 hPa 0,0 l/m N 0,00 h 0 W/m 0,1 km/h (0 Bft)
19.10.2014 00:00 11,1 C 94 % 1021,9 hPa 0,0 l/m N 0,00 h 0 W/m 0,0 km/h (0 Bft)
19.10.2014 01:00 10,5 C 94 % 1021,8 hPa 0,0 l/m N 0,00 h 0 W/m 0,1 km/h (0 Bft)
19.10.2014 02:00 9,8 C 95 % 1021,8 hPa 0,0 l/m N 0,00 h 0 W/m 0,0 km/h (0 Bft)
19.10.2014 03:00 9,4 C 95 % 1021,6 hPa 0,0 l/m N 0,00 h 0 W/m 0,0 km/h (0 Bft)
19.10.2014 04:00 8,6 C 96 % 1021,5 hPa 0,0 l/m O-NO 0,00 h 0 W/m 1,5 km/h (1 Bft)
19.10.2014 05:00 8,1 C 96 % 1021,6 hPa 0,0 l/m N 0,00 h 0 W/m 0,0 km/h (0 Bft)
19.10.2014 06:00 7,9 C 97 % 1021,8 hPa 0,0 l/m N 0,00 h 0 W/m 0,0 km/h (0 Bft)
19.10.2014 07:00 7,7 C 97 % 1021,6 hPa 0,2 l/m N 0,00 h 7 W/m 0,0 km/h (0 Bft)
19.10.2014 08:00 7,1 C 97 % 1021,8 hPa 0,0 l/m N 0,00 h 28 W/m 0,0 km/h (0 Bft)
19.10.2014 09:00 7,9 C 98 % 1022,1 hPa 0,0 l/m N 0,00 h 108 W/m 0,5 km/h (0 Bft)
19.10.2014 10:00 10,5 C 99 % 1022,1 hPa 0,0 l/m S-SW 1,00 h 322 W/m 7,1 km/h (2 Bft)
19.10.2014 11:00 12,2 C 99 % 1021,9 hPa 0,0 l/m S-SW 1,00 h 444 W/m 10,6 km/h (2 Bft)
19.10.2014 12:00 15,0 C 93 % 1021,8 hPa 0,0 l/m S-SW 1,00 h 514 W/m 14,4 km/h (3 Bft)
19.10.2014 13:00 16,7 C 88 % 1021,0 hPa 0,0 l/m S-SW 1,00 h 529 W/m 19,3 km/h (3 Bft)
19.10.2014 14:00 19,6 C 75 % 1020,6 hPa 0,0 l/m SW 1,00 h 492 W/m 19,2 km/h (3 Bft)
19.10.2014 15:00 20,6 C 69 % 1020,4 hPa 0,0 l/m SW 1,00 h 403 W/m 15,3 km/h (3 Bft)
19.10.2014 16:00 20,2 C 73 % 1020,2 hPa 0,0 l/m SW 1,00 h 266 W/m 15,0 km/h (3 Bft)
19.10.2014 17:00 19,5 C 71 % 1020,1 hPa 0,0 l/m SW 0,42 h 80 W/m 11,3 km/h (2 Bft)
19.10.2014 18:00 17,8 C 81 % 1020,1 hPa 0,0 l/m SW 0,08 h 12 W/m 10,6 km/h (2 Bft)
19.10.2014 19:00 16,4 C 86 % 1020,2 hPa 0,0 l/m SW 0,00 h 0 W/m 10,6 km/h (2 Bft)
19.10.2014 20:00 15,6 C 86 % 1020,1 hPa 0,0 l/m SW 0,00 h 0 W/m 10,9 km/h (2 Bft)
19.10.2014 21:00 15,6 C 83 % 1020,5 hPa 0,0 l/m SW 0,00 h 0 W/m 9,6 km/h (2 Bft)
19.10.2014 22:00 14,3 C 87 % 1020,6 hPa 0,0 l/m SW 0,00 h 0 W/m 6,1 km/h (2 Bft)
19.10.2014 23:00 13,3 C 91 % 1020,4 hPa 0,0 l/m SW 0,00 h 0 W/m 7,2 km/h (2 Bft)
Min-Datum _ 18.10.14 14.10.14 17.10.14 - - - - 13.10.14
_ Min-Zeit 08:05 15:55 06:10 - - - - 00:00
Minimum _ 6,3 C 59 % 1005,3 hPa - - - - 0,0 km/h (0 Bft)
Max-Datum _ 19.10.14 14.10.14 18.10.14 14.10.14 - 14.10.14 15.10.14 17.10.14
_ Max-Zeit 15:35 10:35 10:25 00:10 - 08:50 13:05 07:50
Maximum _ 20,8 C 100 % 1022,4 hPa 2,6 l/m - 0,08 h 663 W/m 43,5 km/h
SW (6 Bft)
Durchschnitt _ 13,0 C 91 % 1012,6 hPa #16,2 l/m SW #30:00 h 184 W/m 6,2 km/h (2 Bft)